METAR Reports From Nearby Airports

 

KLUD - Decatur, Texas, USA
Distance from Wildwood: OSO 5mi, 8km
Uppdaterad: Dec 07, 2019 8:55pm
Klart
Klart
 Vind från SSO
Vind: SSO 7 mph , 11 km/h
Temperatur: 50°F , 10°C
Wind Chill: 47°F , 8°C
Daggpunkt: 37°F , 3°C
Luftfuktighet: 62%
Barometer: 30.13 inHg , 1020.3 hPa
Clouds: Klart
Visibility: 10 miles , 16 km
2019/12/08 02:55 KLUD 080255Z AUTO 15006KT 10SM CLR 10/03 A3013 RMK AO2 T01010033
KXBP - Bridgeport, Texas, USA
Distance from Wildwood: VSV 11mi, 18km
Uppdaterad: Dec 07, 2019 8:55pm
Klart
Klart
 Vind från SSO
Vind: SSO 6 mph , 9 km/h
Temperatur: 52°F , 11°C
Daggpunkt: 39°F , 4°C
Luftfuktighet: 62%
Barometer: 30.14 inHg , 1020.7 hPa
Clouds: Klart
Visibility: 10 miles , 16 km
2019/12/08 02:55 KXBP 080255Z AUTO 16005KT 10SM CLR 11/04 A3014 RMK AO2 T01060035
 
K0F2 - Bowie, Texas, USA
Distance from Wildwood: NNV 24mi, 39km
Uppdaterad: Dec 07, 2019 8:55pm
Klart
Klart
 Vind från SO
Vind: SO 5 mph , 7 km/h
Temperatur: 50°F , 10°C
Wind Chill: 48°F , 9°C
Daggpunkt: 39°F , 4°C
Luftfuktighet: 67%
Barometer: 30.12 inHg , 1020 hPa
Clouds: Klart
Visibility: 10 miles , 16 km
2019/12/08 02:55 K0F2 080255Z AUTO 14004KT 10SM CLR 10/04 A3012 RMK AO2 T01030043
KDTO - Denton, Texas, USA
Distance from Wildwood: O 27mi, 44km
Uppdaterad: Dec 07, 2019 8:53pm
Klart
Klart
 Vind från SSO
Vind: SSO 7 mph , 11 km/h
Temperatur: 48°F , 9°C
Wind Chill: 45°F , 7°C
Daggpunkt: 39°F , 4°C
Luftfuktighet: 71%
Barometer: 30.14 inHg , 1020.7 hPa
Clouds: Klart
Visibility: 10 miles , 16 km
2019/12/08 02:53 KDTO 080253Z 15006KT 10SM CLR 09/04 A3014 RMK AO2 SLP204 T00940044 58009
 
KAFW - Ft Worth/Allianc, Texas, USA
Distance from Wildwood: SO 29mi, 46km
Uppdaterad: Dec 07, 2019 8:53pm
Few Clouds
Few Clouds
 Vind från S
Vind: S 6 mph , 9 km/h
Temperatur: 52°F , 11°C
Daggpunkt: 37°F , 3°C
Luftfuktighet: 58%
Barometer: 30.13 inHg , 1020.3 hPa
Clouds: Few Clouds
Visibility: 10 miles , 16 km
Cloud details: Few Clouds 25000 ft
2019/12/08 02:53 KAFW 080253Z 17005KT 10SM FEW250 11/03 A3013 RMK AO2 SLP207 T01060033 58009
KFTW - Fort Worth, Texas, USA
Distance from Wildwood: SSO 34mi, 55km
Uppdaterad: Dec 07, 2019 8:53pm
Klart
Klart
 Vind från SO
Vind: SO 7 mph , 11 km/h
Temperatur: 52°F , 11°C
Daggpunkt: 39°F , 4°C
Luftfuktighet: 62%
Barometer: 30.13 inHg , 1020.3 hPa
Clouds: Klart
Visibility: 10 miles , 16 km
2019/12/08 02:53 KFTW 080253Z 13006KT 10SM CLR 11/04 A3013 RMK AO2 SLP204 T01060044 58007
 
KNFW - Fort Worth Nas, Texas, USA
Distance from Wildwood: SSO 36mi, 58km
Uppdaterad: Dec 07, 2019 4:52pm
NOT Current
Mostly Cloudy
Mostly Cloudy
 Vind från OSO
Vind: OSO 5 mph , 7 km/h
Temperatur: 63°F , 17°C
Daggpunkt: 36°F , 2°C
Luftfuktighet: 37%
Barometer: 30.17 inHg , 1021.7 hPa
Clouds: Mostly Cloudy
Visibility: 10 miles , 16 km
Cloud details: Few Clouds 22000 ft
Mostly Cloudy 30000 ft
2019/12/07 22:52 KNFW 072252Z 11004KT 10SM FEW220 BKN300 17/02 A3017 RMK SLP199 T01730022 VISNO N
KGLE - Gainesville, Texas, USA
Distance from Wildwood: NO 38mi, 61km
Uppdaterad: Dec 07, 2019 8:55pm
Klart
Klart
 Vind från S
Vind: S 3 mph , 6 km/h
Temperatur: 46°F , 8°C
Daggpunkt: 36°F , 2°C
Luftfuktighet: 66%
Barometer: 30.14 inHg , 1020.7 hPa
Clouds: Klart
Visibility: 10 miles , 16 km
2019/12/08 02:55 KGLE 080255Z AUTO 17003KT 10SM CLR 08/02 A3014 RMK AO2 T00750024
 
KMWL - Mineral Wells, Texas, USA
Distance from Wildwood: SV 41mi, 65km
Uppdaterad: Dec 07, 2019 8:53pm
Klart
Klart
 Vind från SO
Vind: SO 9 mph , 15 km/h
Temperatur: 48°F , 9°C
Wind Chill: 44°F , 7°C
Daggpunkt: 39°F , 4°C
Luftfuktighet: 71%
Barometer: 30.11 inHg , 1019.6 hPa
Clouds: Klart
Visibility: 10 miles , 16 km
2019/12/08 02:53 KMWL 080253Z AUTO 14008KT 10SM CLR 09/04 A3011 RMK AO2 SLP196 T00940039 58007
KDFW - Dallas/Ft Worth, Texas, USA
Distance from Wildwood: OSO 45mi, 73km
Uppdaterad: Dec 07, 2019 8:53pm
Few Clouds
Few Clouds
 Vind från SSO
Vind: SSO 8 mph , 13 km/h
Temperatur: 52°F , 11°C
Daggpunkt: 43°F , 6°C
Luftfuktighet: 72%
Barometer: 30.12 inHg , 1020 hPa
Clouds: Few Clouds
Visibility: 10 miles , 16 km
Cloud details: Few Clouds 30000 ft
2019/12/08 02:53 KDFW 080253Z 16007KT 10SM FEW300 11/06 A3012 RMK AO2 SLP199 T01060056 58009